CYMX/YMX METAR and TAF weather

Enter ICAO airport designator
Station Type Date Time Source
CYMX METAR 2019/08/24 09:00 UTC NOAA

CYMX 240900Z 22002KT 25SM FEW060 SCT240 09/09 A3018 RMK SC2CI1 SLP222


Station Type Date Time Source
CYMX Decoded METAR 2019/08/24 09:00 UTC NOAA

Station name not available
Aug 24, 2019 - 05:00 AM EDT / 2019.08.24 0900 UTC
Wind: from the SW (220 degrees) at 2 MPH (2 KT):0
Visibility: 25 mile(s):0
Sky conditions: partly cloudy
Temperature: 48 F (9 C)
Dew Point: 48 F (9 C)
Relative Humidity: 100%
Pressure (altimeter): 30.18 in. Hg (1022 hPa)
ob: CYMX 240900Z 22002KT 25SM FEW060 SCT240 09/09 A3018 RMK SC2CI1 SLP222
cycle: 9

Station Type Date Time Source
CYMX TAF 2019/08/24 06:42 UTC NOAA

TAF CYMX 240538Z 2406/2506 VRB03KT P6SM FEW050
FM241200 36012KT P6SM BKN040
BECMG 2412/2414 05006KT
FM242000 09006KT P6SM SCT040
BECMG 2422/2424 VRB03KT
RMK NXT FCST BY 241200Z

Example: see airport list